createdAt,value
2018-09-29T00:01:20.309Z,97914.95
2018-09-29T00:03:47.477Z,97915.20
2018-09-29T00:06:14.672Z,97919.94
2018-09-29T00:08:41.877Z,97911.52
2018-09-29T00:11:09.108Z,97918.36
2018-09-29T00:13:36.279Z,97922.54
2018-09-29T00:16:03.455Z,97914.95
2018-09-29T00:18:30.617Z,97909.44
2018-09-29T00:20:57.821Z,97914.94
2018-09-29T00:23:24.957Z,97910.47
2018-09-29T00:25:52.132Z,97917.05
2018-09-29T00:28:26.060Z,97908.38
2018-09-29T00:30:53.170Z,97911.19
2018-09-29T00:33:20.329Z,97909.23
2018-09-29T00:35:47.581Z,97900.61
2018-09-29T00:38:14.816Z,97896.67
2018-09-29T00:40:42.061Z,97916.37
2018-09-29T00:43:09.251Z,97929.77
2018-09-29T00:45:36.484Z,97919.11
2018-09-29T00:48:03.692Z,97914.75
2018-09-29T00:50:30.893Z,97918.42
2018-09-29T00:52:58.095Z,97917.20
2018-09-29T00:55:25.309Z,97912.95
2018-09-29T00:57:52.472Z,97905.37
2018-09-29T01:00:19.628Z,97906.43
2018-09-29T01:02:47.077Z,97903.02
2018-09-29T01:05:14.264Z,97902.75
2018-09-29T01:07:41.424Z,97897.98
2018-09-29T01:10:08.569Z,97901.66
2018-09-29T01:12:35.704Z,97885.13
2018-09-29T01:15:03.151Z,97893.14
2018-09-29T01:17:30.436Z,97887.97
2018-09-29T01:19:57.620Z,97883.50
2018-09-29T01:22:24.785Z,97892.27
2018-09-29T01:24:51.971Z,97887.97
2018-09-29T01:27:19.136Z,97889.02
2018-09-29T01:29:46.313Z,97893.66
2018-09-29T01:32:13.478Z,97895.98
2018-09-29T01:34:40.619Z,97890.81
2018-09-29T01:37:07.804Z,97888.94
2018-09-29T01:42:08.965Z,97887.34
2018-09-29T01:44:36.084Z,97892.88
2018-09-29T01:47:03.244Z,97895.91
2018-09-29T01:49:30.416Z,97896.67
2018-09-29T01:51:57.597Z,97899.31
2018-09-29T01:54:24.744Z,97900.30
2018-09-29T01:56:51.924Z,97906.36
2018-09-29T01:59:19.061Z,97904.72
2018-09-29T02:01:46.369Z,97908.47
2018-09-29T02:04:13.553Z,97907.46
2018-09-29T02:06:40.752Z,97906.64
2018-09-29T02:09:08.411Z,97910.77
2018-09-29T02:11:35.620Z,97921.00
2018-09-29T02:14:02.880Z,97916.91
2018-09-29T02:16:30.082Z,97918.36
2018-09-29T02:18:57.276Z,97922.30
2018-09-29T02:21:24.441Z,97922.81
2018-09-29T02:23:51.610Z,97929.06
2018-09-29T02:26:18.747Z,97927.02
2018-09-29T02:28:45.927Z,97920.19
2018-09-29T02:31:13.073Z,97912.77
2018-09-29T02:33:40.204Z,97918.10
2018-09-29T02:36:07.395Z,97916.66
2018-09-29T02:38:34.548Z,97916.52
2018-09-29T02:41:01.711Z,97921.57
2018-09-29T02:43:28.865Z,97915.43
2018-09-29T02:45:56.031Z,97919.63
2018-09-29T02:48:23.168Z,97917.41
2018-09-29T02:50:50.313Z,97915.70
2018-09-29T02:53:17.503Z,97924.55
2018-09-29T02:55:44.640Z,97926.00
2018-09-29T02:58:11.860Z,97929.34
2018-09-29T03:00:39.023Z,97928.72
2018-09-29T03:03:06.232Z,97936.39
2018-09-29T03:05:33.468Z,97941.27
2018-09-29T03:08:00.697Z,97935.87
2018-09-29T03:10:27.813Z,97929.23
2018-09-29T03:12:54.924Z,97937.50
2018-09-29T03:15:22.252Z,97935.81
2018-09-29T03:17:49.464Z,97931.79
2018-09-29T03:20:16.577Z,97938.51
2018-09-29T03:22:43.744Z,97935.36
2018-09-29T03:25:10.929Z,97930.07
2018-09-29T03:27:38.115Z,97931.02
2018-09-29T03:30:05.540Z,97928.67
2018-09-29T03:32:32.750Z,97924.64
2018-09-29T03:34:59.881Z,97917.24
2018-09-29T03:37:27.052Z,97921.11
2018-09-29T03:39:54.252Z,97917.98
2018-09-29T03:42:21.412Z,97915.14
2018-09-29T03:44:48.553Z,97912.54
2018-09-29T03:47:15.747Z,97918.00
2018-09-29T03:49:42.897Z,97916.55
2018-09-29T03:52:10.104Z,97918.39
2018-09-29T03:54:37.264Z,97923.36
2018-09-29T03:57:04.417Z,97925.23
2018-09-29T03:59:31.607Z,97935.18
2018-09-29T04:01:58.741Z,97936.42
2018-09-29T04:04:25.904Z,97940.89
2018-09-29T04:06:53.124Z,97938.00
2018-09-29T04:09:21.252Z,97937.14
2018-09-29T04:11:48.392Z,97942.09
2018-09-29T04:14:15.567Z,97943.23
2018-09-29T04:16:42.735Z,97938.89
2018-09-29T04:19:09.952Z,97942.37
2018-09-29T04:21:53.075Z,97941.56
2018-09-29T04:24:20.235Z,97945.25
2018-09-29T04:26:47.407Z,97947.41
2018-09-29T04:29:15.792Z,97951.85
2018-09-29T04:31:43.270Z,97949.91
2018-09-29T04:34:11.150Z,97951.00
2018-09-29T04:36:38.340Z,97947.32
2018-09-29T04:39:07.516Z,97951.17
2018-09-29T04:41:34.704Z,97952.37
2018-09-29T04:44:01.847Z,97945.08
2018-09-29T04:46:29.006Z,97942.28
2018-09-29T04:48:56.166Z,97949.88
2018-09-29T04:51:23.333Z,97955.69
2018-09-29T04:53:50.513Z,97959.81
2018-09-29T04:56:17.649Z,97962.53
2018-09-29T04:58:44.840Z,97964.78
2018-09-29T05:01:11.980Z,97969.55
2018-09-29T05:03:39.132Z,97969.63
2018-09-29T05:06:06.408Z,97978.38
2018-09-29T05:08:33.593Z,97985.81
2018-09-29T05:11:00.728Z,97984.31
2018-09-29T05:13:27.921Z,97988.86
2018-09-29T05:15:55.111Z,97986.73
2018-09-29T05:18:22.287Z,97993.72
2018-09-29T05:20:49.440Z,97992.36
2018-09-29T05:23:16.597Z,98000.00
2018-09-29T05:25:43.757Z,98003.06
2018-09-29T05:28:11.239Z,98014.17
2018-09-29T05:30:38.400Z,98017.20
2018-09-29T05:33:05.668Z,98020.73
2018-09-29T05:35:32.925Z,98021.45
2018-09-29T05:38:00.117Z,98018.45
2018-09-29T05:40:27.289Z,98021.52
2018-09-29T05:42:54.523Z,98023.07
2018-09-29T05:45:21.698Z,98022.95
2018-09-29T05:47:48.935Z,98027.42
2018-09-29T05:50:16.139Z,98026.24
2018-09-29T05:52:43.398Z,98027.24
2018-09-29T05:55:10.615Z,98027.25
2018-09-29T05:57:37.871Z,98031.86
2018-09-29T06:00:05.249Z,98036.30
2018-09-29T06:02:32.503Z,98031.99
2018-09-29T06:04:59.674Z,98041.31
2018-09-29T06:07:26.828Z,98035.34
2018-09-29T06:09:53.986Z,98031.69
2018-09-29T06:12:21.137Z,98036.98
2018-09-29T06:14:48.373Z,98031.56
2018-09-29T06:17:15.593Z,98037.89
2018-09-29T06:19:42.848Z,98038.61
2018-09-29T06:22:10.076Z,98039.12
2018-09-29T06:24:37.244Z,98042.81
2018-09-29T06:27:04.434Z,98040.44
2018-09-29T06:29:31.628Z,98040.22
2018-09-29T06:31:58.872Z,98042.22
2018-09-29T06:34:27.072Z,98046.55
2018-09-29T06:36:54.273Z,98049.60
2018-09-29T06:39:21.395Z,98054.55
2018-09-29T06:41:48.539Z,98056.89
2018-09-29T06:44:15.757Z,98047.62
2018-09-29T06:46:42.993Z,98055.27
2018-09-29T06:49:10.178Z,98053.73
2018-09-29T06:51:37.379Z,98048.97
2018-09-29T06:54:04.590Z,98035.45
2018-09-29T06:56:31.784Z,98051.11
2018-09-29T06:58:58.960Z,98054.92
2018-09-29T07:01:26.127Z,98044.81
2018-09-29T07:03:53.332Z,98058.48
2018-09-29T07:06:20.545Z,98052.21
2018-09-29T07:08:47.739Z,98053.64
2018-09-29T07:11:14.884Z,98056.06
2018-09-29T07:13:42.028Z,98051.63
2018-09-29T07:16:09.257Z,98053.72
2018-09-29T07:18:36.488Z,98053.80
2018-09-29T07:21:03.716Z,98054.84
2018-09-29T07:23:30.876Z,98054.91
2018-09-29T07:25:58.083Z,98060.95
2018-09-29T07:28:25.258Z,98056.23
2018-09-29T07:30:52.514Z,98053.05
2018-09-29T07:33:19.693Z,98049.53
2018-09-29T07:35:46.865Z,98051.24
2018-09-29T07:38:14.041Z,98046.81
2018-09-29T07:40:41.233Z,98038.91
2018-09-29T07:43:08.410Z,98042.45
2018-09-29T07:45:35.580Z,98040.08
2018-09-29T07:48:02.780Z,98052.03
2018-09-29T07:50:30.024Z,98041.76
2018-09-29T07:52:57.232Z,98037.03
2018-09-29T07:55:24.389Z,98043.36
2018-09-29T07:57:51.597Z,98046.38
2018-09-29T08:00:18.780Z,98041.32
2018-09-29T08:02:45.989Z,98039.77
2018-09-29T08:05:13.198Z,98040.52
2018-09-29T08:07:40.416Z,98034.81
2018-09-29T08:10:07.705Z,98040.28
2018-09-29T08:12:34.909Z,98044.14
2018-09-29T08:15:02.528Z,98032.36
2018-09-29T08:17:29.709Z,98043.22
2018-09-29T08:19:56.849Z,98036.85
2018-09-29T08:22:24.016Z,98045.61
2018-09-29T08:24:51.208Z,98052.16
2018-09-29T08:27:18.404Z,98055.08
2018-09-29T08:29:45.787Z,98053.86
2018-09-29T08:32:12.982Z,98061.55
2018-09-29T08:34:40.241Z,98059.62
2018-09-29T08:37:07.432Z,98062.94
2018-09-29T08:39:34.605Z,98051.51
2018-09-29T08:42:01.783Z,98066.27
2018-09-29T08:44:28.975Z,98069.44
2018-09-29T08:46:56.148Z,98061.84
2018-09-29T08:49:23.402Z,98063.33
2018-09-29T08:51:50.529Z,98055.72
2018-09-29T08:54:17.693Z,98052.09
2018-09-29T08:56:44.921Z,98057.95
2018-09-29T08:59:12.136Z,98053.14
2018-09-29T09:01:39.360Z,98051.70
2018-09-29T09:04:06.653Z,98041.48
2018-09-29T09:06:33.756Z,98042.91
2018-09-29T09:09:00.936Z,98045.93
2018-09-29T09:11:28.164Z,98047.33
2018-09-29T09:13:55.338Z,98044.25
2018-09-29T09:16:23.825Z,98045.33
2018-09-29T09:18:51.074Z,98037.98
2018-09-29T09:21:18.235Z,98024.52
2018-09-29T09:23:45.469Z,98016.28
2018-09-29T09:26:12.680Z,98022.22
2018-09-29T09:28:40.094Z,98022.64
2018-09-29T09:31:07.371Z,98025.09
2018-09-29T09:33:34.540Z,98032.74
2018-09-29T09:36:01.712Z,98028.33
2018-09-29T09:38:29.008Z,98025.74
2018-09-29T09:40:56.192Z,98035.50
2018-09-29T09:43:23.373Z,98025.98
2018-09-29T09:45:50.873Z,98024.84
2018-09-29T09:48:18.052Z,98025.11
2018-09-29T09:50:45.337Z,98012.25
2018-09-29T09:53:12.532Z,98009.53
2018-09-29T09:55:39.703Z,98007.28
2018-09-29T09:58:06.877Z,98010.45
2018-09-29T10:00:39.717Z,98005.28
2018-09-29T10:03:12.495Z,98002.88
2018-09-29T10:05:39.692Z,98003.29
2018-09-29T10:08:06.873Z,97994.33
2018-09-29T10:10:34.151Z,97990.16
2018-09-29T10:13:01.311Z,97988.21
2018-09-29T10:15:28.512Z,97981.91
2018-09-29T10:17:55.720Z,97984.61
2018-09-29T10:20:22.925Z,97981.23
2018-09-29T10:22:50.199Z,97984.77
2018-09-29T10:25:17.340Z,97982.56
2018-09-29T10:27:44.577Z,97987.61
2018-09-29T10:30:11.853Z,97982.47
2018-09-29T10:32:39.072Z,97977.80
2018-09-29T10:35:06.508Z,97983.23
2018-09-29T10:37:33.680Z,97980.18
2018-09-29T10:40:00.874Z,97977.05
2018-09-29T10:42:28.047Z,97974.34
2018-09-29T10:44:55.218Z,97975.73
2018-09-29T10:47:22.436Z,97979.48
2018-09-29T10:49:49.735Z,97974.09
2018-09-29T10:52:16.907Z,97972.77
2018-09-29T10:54:44.835Z,97968.97
2018-09-29T10:57:12.119Z,97959.91
2018-09-29T10:59:39.290Z,97961.78
2018-09-29T11:02:06.452Z,97953.86
2018-09-29T11:04:33.585Z,97956.39
2018-09-29T11:07:00.806Z,97953.86
2018-09-29T11:09:28.055Z,97949.38
2018-09-29T11:11:55.247Z,97958.42
2018-09-29T11:14:22.579Z,97954.09
2018-09-29T11:19:23.764Z,97939.50
2018-09-29T11:21:50.892Z,97937.44
2018-09-29T11:24:18.074Z,97939.31
2018-09-29T11:26:45.279Z,97933.11
2018-09-29T11:29:12.491Z,97930.41
2018-09-29T11:31:39.832Z,97927.72
2018-09-29T11:34:06.985Z,97922.20
2018-09-29T11:36:34.194Z,97915.67
2018-09-29T11:39:01.439Z,97908.08
2018-09-29T11:41:28.748Z,97899.34
2018-09-29T11:43:55.946Z,97905.37
2018-09-29T11:46:23.209Z,97901.04
2018-09-29T11:48:50.420Z,97887.77
2018-09-29T11:51:17.647Z,97884.83
2018-09-29T11:53:44.844Z,97883.34
2018-09-29T11:56:12.064Z,97876.29
2018-09-29T11:58:39.182Z,97869.45
2018-09-29T12:01:06.427Z,97855.80
2018-09-29T12:03:33.673Z,97857.81
2018-09-29T12:06:01.013Z,97848.75
2018-09-29T12:08:28.128Z,97842.83
2018-09-29T12:10:55.325Z,97836.77
2018-09-29T12:13:22.501Z,97832.29
2018-09-29T12:15:49.661Z,97833.72
2018-09-29T12:18:16.892Z,97840.45
2018-09-29T12:20:44.105Z,97834.67
2018-09-29T12:23:11.320Z,97831.78
2018-09-29T12:25:38.552Z,97830.32
2018-09-29T12:28:05.704Z,97831.55
2018-09-29T12:30:32.929Z,97828.64
2018-09-29T12:33:00.148Z,97820.80
2018-09-29T12:35:27.415Z,97823.28
2018-09-29T12:37:54.664Z,97818.38
2018-09-29T12:40:21.895Z,97823.09
2018-09-29T12:42:49.111Z,97820.61
2018-09-29T12:45:16.305Z,97812.66
2018-09-29T12:47:43.598Z,97820.30
2018-09-29T12:50:10.831Z,97807.28
2018-09-29T12:52:44.902Z,97810.58
2018-09-29T12:55:12.123Z,97816.03
2018-09-29T12:57:39.386Z,97811.41
2018-09-29T13:00:07.195Z,97807.92
2018-09-29T13:02:34.422Z,97804.44
2018-09-29T13:05:01.700Z,97807.13
2018-09-29T13:07:28.941Z,97799.30
2018-09-29T13:09:56.154Z,97798.48
2018-09-29T13:12:23.353Z,97795.70
2018-09-29T13:14:50.631Z,97800.38
2018-09-29T13:17:17.860Z,97796.95
2018-09-29T13:19:45.062Z,97788.18
2018-09-29T13:22:12.401Z,97785.84
2018-09-29T13:24:39.661Z,97795.41
2018-09-29T13:27:06.910Z,97795.55
2018-09-29T13:29:34.183Z,97787.03
2018-09-29T13:32:01.496Z,97790.08
2018-09-29T13:34:28.664Z,97791.31
2018-09-29T13:36:55.864Z,97790.61
2018-09-29T13:39:23.188Z,97790.13
2018-09-29T13:41:50.428Z,97786.07
2018-09-29T13:44:17.694Z,97779.62
2018-09-29T13:46:44.922Z,97782.58
2018-09-29T13:49:12.118Z,97777.48
2018-09-29T13:51:39.288Z,97776.83
2018-09-29T13:54:06.429Z,97779.50
2018-09-29T13:56:34.519Z,97766.30
2018-09-29T13:59:02.047Z,97761.26
2018-09-29T14:01:29.224Z,97761.09
2018-09-29T14:03:56.452Z,97767.95
2018-09-29T14:06:23.617Z,97765.42
2018-09-29T14:08:50.825Z,97765.20
2018-09-29T14:11:18.076Z,97759.41
2018-09-29T14:13:45.269Z,97758.77
2018-09-29T14:16:12.495Z,97748.19
2018-09-29T14:18:39.690Z,97751.46
2018-09-29T14:21:06.860Z,97747.73
2018-09-29T14:23:34.016Z,97742.70
2018-09-29T14:26:01.249Z,97742.24
2018-09-29T14:28:28.468Z,97733.67
2018-09-29T14:30:55.679Z,97732.42
2018-09-29T14:33:22.845Z,97736.98
2018-09-29T14:35:50.043Z,97728.49
2018-09-29T14:38:17.204Z,97720.42
2018-09-29T14:40:44.409Z,97708.99
2018-09-29T14:43:11.597Z,97719.06
2018-09-29T14:45:38.773Z,97715.27
2018-09-29T14:48:08.158Z,97714.36
2018-09-29T14:50:35.508Z,97718.38
2018-09-29T14:53:02.699Z,97716.06
2018-09-29T14:55:29.956Z,97708.73
2018-09-29T14:57:57.203Z,97711.70
2018-09-29T15:00:24.483Z,97710.72
2018-09-29T15:02:51.718Z,97708.36
2018-09-29T15:05:18.990Z,97705.88
2018-09-29T15:07:48.436Z,97699.75
2018-09-29T15:10:16.965Z,97711.94
2018-09-29T15:12:44.172Z,97701.02
2018-09-29T15:15:11.477Z,97700.52
2018-09-29T15:17:38.725Z,97695.78
2018-09-29T15:20:06.081Z,97692.77
2018-09-29T15:22:33.272Z,97681.77
2018-09-29T15:25:00.515Z,97681.66
2018-09-29T15:27:27.773Z,97679.80
2018-09-29T15:29:55.011Z,97671.13
2018-09-29T15:32:22.305Z,97672.77
2018-09-29T15:34:49.566Z,97673.11
2018-09-29T15:37:16.793Z,97671.55
2018-09-29T15:39:44.118Z,97665.28
2018-09-29T15:42:11.387Z,97660.67
2018-09-29T15:44:38.619Z,97655.91
2018-09-29T15:47:05.951Z,97654.49
2018-09-29T15:49:33.165Z,97658.20
2018-09-29T15:52:00.460Z,97659.08
2018-09-29T15:54:27.698Z,97645.67
2018-09-29T15:56:54.976Z,97647.23
2018-09-29T15:59:22.206Z,97644.02
2018-09-29T16:01:49.516Z,97638.34
2018-09-29T16:04:16.744Z,97641.87
2018-09-29T16:06:43.995Z,97650.72
2018-09-29T16:09:11.227Z,97641.29
2018-09-29T16:11:39.373Z,97650.52
2018-09-29T16:14:06.616Z,97653.90
2018-09-29T16:16:33.900Z,97650.86
2018-09-29T16:19:01.057Z,97648.45
2018-09-29T16:21:28.359Z,97650.02
2018-09-29T16:23:55.530Z,97646.59
2018-09-29T16:26:22.805Z,97643.22
2018-09-29T16:28:49.953Z,97648.30
2018-09-29T16:31:17.288Z,97645.50
2018-09-29T16:33:44.510Z,97647.28
2018-09-29T16:36:11.737Z,97638.67
2018-09-29T16:38:39.003Z,97638.91
2018-09-29T16:41:06.453Z,97645.14
2018-09-29T16:43:33.996Z,97645.03
2018-09-29T16:46:01.349Z,97647.55
2018-09-29T16:48:28.549Z,97646.09
2018-09-29T16:50:55.781Z,97642.80
2018-09-29T16:53:22.975Z,97645.75
2018-09-29T16:55:50.209Z,97648.89
2018-09-29T16:58:17.437Z,97655.70
2018-09-29T17:00:44.618Z,97647.59
2018-09-29T17:03:11.836Z,97639.29
2018-09-29T17:05:39.001Z,97582.77
2018-09-29T17:08:06.272Z,97656.55
2018-09-29T17:10:33.621Z,97658.96
2018-09-29T17:13:00.864Z,97657.64
2018-09-29T17:15:28.094Z,97659.43
2018-09-29T17:17:55.304Z,97657.14
2018-09-29T17:20:22.575Z,97654.91
2018-09-29T17:22:49.795Z,97650.14
2018-09-29T17:25:16.957Z,97651.34
2018-09-29T17:27:44.136Z,97652.11
2018-09-29T17:30:11.374Z,97654.61
2018-09-29T17:32:38.581Z,97651.38
2018-09-29T17:35:05.830Z,97654.63
2018-09-29T17:37:33.033Z,97650.14
2018-09-29T17:40:00.393Z,97648.03
2018-09-29T17:42:27.672Z,97645.12
2018-09-29T17:44:54.866Z,97652.03
2018-09-29T17:47:22.068Z,97649.62
2018-09-29T17:49:49.317Z,97643.47
2018-09-29T17:52:16.585Z,97646.36
2018-09-29T17:54:43.848Z,97641.91
2018-09-29T17:57:11.456Z,97643.66
2018-09-29T17:59:38.810Z,97637.04
2018-09-29T18:02:06.183Z,97638.50
2018-09-29T18:04:33.486Z,97635.86
2018-09-29T18:07:01.234Z,97631.70
2018-09-29T18:09:28.426Z,97634.89
2018-09-29T18:11:55.656Z,97632.11
2018-09-29T18:14:22.893Z,97634.94
2018-09-29T18:16:50.148Z,97636.55
2018-09-29T18:19:17.393Z,97631.88
2018-09-29T18:21:44.687Z,97636.00
2018-09-29T18:24:11.895Z,97630.95
2018-09-29T18:26:39.123Z,97628.09
2018-09-29T18:29:06.352Z,97639.92
2018-09-29T18:31:33.725Z,97637.69
2018-09-29T18:34:00.967Z,97632.27
2018-09-29T18:36:28.247Z,97628.48
2018-09-29T18:38:55.427Z,97630.85
2018-09-29T18:41:22.638Z,97620.91
2018-09-29T18:43:49.778Z,97625.91
2018-09-29T18:46:16.981Z,97626.00
2018-09-29T18:48:44.241Z,97623.31
2018-09-29T18:51:11.507Z,97624.78
2018-09-29T18:53:38.768Z,97628.78
2018-09-29T18:56:06.132Z,97621.09
2018-09-29T18:58:33.351Z,97613.59
2018-09-29T19:01:00.570Z,97616.39
2018-09-29T19:03:27.834Z,97631.49
2018-09-29T19:05:55.077Z,97631.28
2018-09-29T19:08:22.339Z,97627.70
2018-09-29T19:10:49.555Z,97621.85
2018-09-29T19:13:16.751Z,97624.52
2018-09-29T19:15:43.978Z,97627.53
2018-09-29T19:18:11.224Z,97616.27
2018-09-29T19:20:38.470Z,97623.69
2018-09-29T19:23:05.690Z,97629.18
2018-09-29T19:25:32.930Z,97619.62
2018-09-29T19:28:00.149Z,97626.30
2018-09-29T19:30:27.318Z,97633.23
2018-09-29T19:32:54.589Z,97626.81
2018-09-29T19:35:21.800Z,97634.91
2018-09-29T19:37:49.029Z,97618.66
2018-09-29T19:40:16.252Z,97633.52
2018-09-29T19:42:43.450Z,97616.41
2018-09-29T19:45:11.464Z,97626.78
2018-09-29T19:47:38.677Z,97626.70
2018-09-29T19:50:06.283Z,97624.58
2018-09-29T19:52:33.527Z,97624.35
2018-09-29T19:55:00.785Z,97625.34
2018-09-29T19:57:28.033Z,97618.48
2018-09-29T19:59:55.312Z,97616.68
2018-09-29T20:02:22.629Z,97626.97
2018-09-29T20:04:49.848Z,97615.75
2018-09-29T20:07:17.096Z,97625.92
2018-09-29T20:09:44.345Z,97624.95
2018-09-29T20:12:11.593Z,97622.68
2018-09-29T20:14:38.837Z,97628.02
2018-09-29T20:17:06.096Z,97627.03
2018-09-29T20:19:33.378Z,97622.61
2018-09-29T20:22:00.622Z,97618.29
2018-09-29T20:24:27.913Z,97621.73
2018-09-29T20:26:55.121Z,97630.17
2018-09-29T20:29:22.387Z,97624.97
2018-09-29T20:31:49.622Z,97629.55
2018-09-29T20:34:16.849Z,97631.64
2018-09-29T20:36:44.053Z,97633.84
2018-09-29T20:39:12.739Z,97620.16
2018-09-29T20:41:40.145Z,97628.50
2018-09-29T20:44:07.702Z,97633.24
2018-09-29T20:46:35.316Z,97632.63
2018-09-29T20:49:02.582Z,97623.09
2018-09-29T20:51:29.788Z,97626.46
2018-09-29T20:53:57.103Z,97629.94
2018-09-29T20:56:24.441Z,97627.89
2018-09-29T20:58:51.686Z,97623.75
2018-09-29T21:01:18.959Z,97627.95
2018-09-29T21:03:46.211Z,97621.66
2018-09-29T21:06:13.466Z,97627.21
2018-09-29T21:08:41.328Z,97628.81
2018-09-29T21:11:08.618Z,97626.19
2018-09-29T21:13:35.921Z,97624.09
2018-09-29T21:16:03.156Z,97624.09
2018-09-29T21:18:30.733Z,97621.44
2018-09-29T21:20:58.001Z,97616.14
2018-09-29T21:23:25.214Z,97624.83
2018-09-29T21:25:52.424Z,97596.00
2018-09-29T21:28:19.735Z,97616.50
2018-09-29T21:30:46.918Z,97616.48
2018-09-29T21:33:14.206Z,97617.31
2018-09-29T21:35:41.602Z,97615.99
2018-09-29T21:38:11.166Z,97617.05
2018-09-29T21:40:38.577Z,97618.38
2018-09-29T21:43:05.900Z,97619.94
2018-09-29T21:45:33.095Z,97621.25
2018-09-29T21:48:00.253Z,97607.61
2018-09-29T21:50:27.557Z,97617.02
2018-09-29T21:52:54.785Z,97608.38
2018-09-29T21:55:21.937Z,97602.78
2018-09-29T21:57:49.155Z,97604.80
2018-09-29T22:00:20.872Z,97607.47
2018-09-29T22:02:48.060Z,97600.45
2018-09-29T22:05:15.190Z,97595.50
2018-09-29T22:07:42.329Z,97596.78
2018-09-29T22:10:09.500Z,97591.58
2018-09-29T22:12:36.670Z,97595.02
2018-09-29T22:15:04.207Z,97592.63
2018-09-29T22:17:31.357Z,97588.42
2018-09-29T22:19:58.535Z,97591.30
2018-09-29T22:22:25.707Z,97586.06
2018-09-29T22:24:52.898Z,97580.80
2018-09-29T22:27:20.084Z,97581.86
2018-09-29T22:29:47.236Z,97577.89
2018-09-29T22:32:14.440Z,97575.55
2018-09-29T22:34:41.647Z,97575.27
2018-09-29T22:37:08.785Z,97564.55
2018-09-29T22:39:35.961Z,97566.41
2018-09-29T22:42:03.147Z,97568.91
2018-09-29T22:44:30.323Z,97566.81
2018-09-29T22:46:57.492Z,97561.22
2018-09-29T22:49:24.628Z,97557.88
2018-09-29T22:51:51.821Z,97552.13
2018-09-29T22:54:19.003Z,97545.98
2018-09-29T22:56:46.203Z,97549.91
2018-09-29T22:59:13.380Z,97540.53
2018-09-29T23:01:40.580Z,97539.00
2018-09-29T23:04:07.771Z,97535.34
2018-09-29T23:06:34.925Z,97535.33
2018-09-29T23:09:02.087Z,97528.75
2018-09-29T23:11:29.226Z,97534.02
2018-09-29T23:13:56.352Z,97536.07
2018-09-29T23:16:23.529Z,97540.48
2018-09-29T23:18:50.696Z,97535.25
2018-09-29T23:21:17.900Z,97534.19
2018-09-29T23:23:45.097Z,97541.72
2018-09-29T23:26:12.233Z,97531.66
2018-09-29T23:28:39.396Z,97535.30
2018-09-29T23:31:06.552Z,97538.43
2018-09-29T23:33:33.709Z,97536.45
2018-09-29T23:36:00.901Z,97529.89
2018-09-29T23:38:28.127Z,97528.02
2018-09-29T23:40:55.296Z,97522.23
2018-09-29T23:43:22.516Z,97515.94
2018-09-29T23:45:49.724Z,97512.56
2018-09-29T23:48:16.915Z,97516.98
2018-09-29T23:50:44.104Z,97514.63
2018-09-29T23:53:11.249Z,97519.62
2018-09-29T23:55:38.464Z,97513.61
2018-09-29T23:58:05.664Z,97508.92
